Time;durP1;ratioP1;P1;durP2;ratioP2;P2;SDS_P1;SDS_P2;PMS_P1;PMS_P2;Temp;Humidity;BMP_temperature;BMP_pressure;BME280_temperature;BME280_humidity;BME280_pressure;Samples;Min_cycle;Max_cycle;Signal;HPM_P1;HPM_P2
2022/07/30 00:00:19;;;;;;;5.25;3.90;;;16.20;99.90;;;;;;4950551;28;20528;-83
2022/07/30 00:03:11;;;;;;;7.57;4.53;;;16.20;99.90;;;;;;4943629;28;20122;-83
2022/07/30 00:05:58;;;;;;;4.82;4.32;;;16.10;99.90;;;;;;4949500;28;20054;-83
2022/07/30 00:08:48;;;;;;;5.65;3.92;;;16.00;99.90;;;;;;4938064;28;20115;-83
2022/07/30 00:11:36;;;;;;;6.38;4.38;;;16.00;99.90;;;;;;4941871;29;20512;-83
2022/07/30 00:14:23;;;;;;;8.30;3.33;;;16.00;99.90;;;;;;4944785;28;20054;-83
2022/07/30 00:17:12;;;;;;;7.93;4.20;;;15.90;99.90;;;;;;4941371;29;20102;-83
2022/07/30 00:20:03;;;;;;;6.25;3.80;;;15.90;99.90;;;;;;4932676;29;20055;-83
2022/07/30 00:22:51;;;;;;;6.05;4.32;;;15.90;99.90;;;;;;4954478;28;20190;-83
2022/07/30 00:25:41;;;;;;;10.38;4.50;;;15.90;99.90;;;;;;4950173;28;20046;-83
2022/07/30 00:28:30;;;;;;;11.57;4.10;;;16.00;99.90;;;;;;4956743;28;20058;-84
2022/07/30 00:31:18;;;;;;;4.18;3.67;;;16.00;99.90;;;;;;4938873;29;20083;-83
2022/07/30 00:34:06;;;;;;;10.43;4.15;;;16.00;99.90;;;;;;4941898;29;20106;-83
2022/07/30 00:36:53;;;;;;;12.10;4.22;;;16.00;99.90;;;;;;4942418;29;20114;-83
2022/07/30 00:39:40;;;;;;;5.03;4.10;;;16.00;99.90;;;;;;4948273;28;20051;-83
2022/07/30 00:42:39;;;;;;;8.70;3.97;;;16.10;99.90;;;;;;4944988;29;20174;-83
2022/07/30 00:45:27;;;;;;;7.50;4.20;;;16.10;99.90;;;;;;4954829;28;20039;-83
2022/07/30 00:48:15;;;;;;;5.70;4.82;;;16.10;99.90;;;;;;4946485;28;20058;-83
2022/07/30 00:51:02;;;;;;;8.85;4.30;;;16.10;99.90;;;;;;4957729;28;20082;-84
2022/07/30 00:53:52;;;;;;;8.48;4.50;;;16.10;99.90;;;;;;4958639;28;20051;-84
2022/07/30 00:56:41;;;;;;;9.20;4.40;;;16.10;99.90;;;;;;4950174;28;20055;-83
2022/07/30 00:59:28;;;;;;;4.97;4.30;;;16.10;99.90;;;;;;4965492;28;20495;-85
2022/07/30 01:02:15;;;;;;;5.90;4.45;;;16.00;99.90;;;;;;4936029;29;20048;-84
2022/07/30 01:05:04;;;;;;;5.93;4.40;;;16.00;99.90;;;;;;4940446;28;20043;-85
2022/07/30 01:07:51;;;;;;;4.95;4.20;;;15.80;99.90;;;;;;4949105;28;20084;-85
2022/07/30 01:10:38;;;;;;;5.95;4.75;;;15.90;99.90;;;;;;4971412;28;20059;-84
2022/07/30 01:13:26;;;;;;;5.22;4.40;;;15.90;99.90;;;;;;4959281;28;20051;-85
2022/07/30 01:16:14;;;;;;;9.85;4.63;;;15.90;99.90;;;;;;4937663;29;20043;-85
2022/07/30 01:22:27;;;;;;;9.32;4.90;;;15.90;99.90;;;;;;4960723;28;20146;-85
2022/07/30 01:25:50;;;;;;;6.30;4.30;;;15.80;99.90;;;;;;4953105;28;20456;-86
2022/07/30 01:28:42;;;;;;;5.90;4.72;;;15.80;99.90;;;;;;4956139;28;20047;-85
2022/07/30 01:31:29;;;;;;;8.98;4.15;;;15.70;99.90;;;;;;4945677;29;20058;-86
2022/07/30 01:34:18;;;;;;;7.85;4.53;;;15.70;99.90;;;;;;4943242;28;20105;-86
2022/07/30 01:37:10;;;;;;;5.28;4.75;;;15.70;99.90;;;;;;4951811;28;20054;-84
2022/07/30 01:40:00;;;;;;;6.03;4.50;;;15.60;99.90;;;;;;4963641;29;20164;-85
2022/07/30 01:42:53;;;;;;;5.25;4.75;;;15.60;99.90;;;;;;4964994;28;20074;-85
2022/07/30 01:45:41;;;;;;;9.43;4.57;;;15.70;99.90;;;;;;4968340;28;20054;-85
2022/07/30 01:48:36;;;;;;;4.78;4.28;;;15.60;99.90;;;;;;4968631;29;20075;-85
2022/07/30 01:51:23;;;;;;;;;;;15.60;99.90;;;;;;4967055;29;20111;-82
2022/07/30 01:54:12;;;;;;;6.97;4.70;;;15.50;99.90;;;;;;4961007;28;19950;-85
2022/07/30 01:57:01;;;;;;;4.78;4.28;;;15.40;99.90;;;;;;4949523;29;20358;-85
2022/07/30 01:59:56;;;;;;;5.88;4.22;;;15.40;99.90;;;;;;4951045;29;20087;-85
2022/07/30 02:02:44;;;;;;;8.65;5.10;;;15.30;99.90;;;;;;4963082;28;20054;-86
2022/07/30 02:05:35;;;;;;;7.85;4.72;;;15.20;99.90;;;;;;4950338;28;20063;-86
2022/07/30 02:08:28;;;;;;;6.68;4.95;;;15.20;99.90;;;;;;4964153;28;20039;-86
2022/07/30 02:14:57;;;;;;;8.70;5.07;;;14.90;99.90;;;;;;4963231;28;20556;-85
2022/07/30 02:18:11;;;;;;;11.45;6.05;;;14.80;1.00;;;;;;4946356;29;20043;-85
2022/07/30 02:21:09;;;;;;;11.80;6.38;;;14.60;5.50;;;;;;4961422;28;20043;-85
2022/07/30 02:24:07;;;;;;;7.85;6.20;;;14.60;99.90;;;;;;4957045;28;20051;-85
2022/07/30 02:26:59;;;;;;;12.00;6.63;;;14.70;99.90;;;;;;4943797;28;20484;-85
2022/07/30 02:29:49;;;;;;;8.75;6.32;;;14.70;99.90;;;;;;4941871;28;20055;-85
2022/07/30 02:32:42;;;;;;;8.23;6.18;;;14.70;99.90;;;;;;4941023;28;20083;-85
2022/07/30 02:35:31;;;;;;;8.25;6.55;;;14.60;99.90;;;;;;4946490;28;20055;-84
2022/07/30 02:38:24;;;;;;;9.15;6.68;;;14.70;99.90;;;;;;4952699;28;20382;-84
2022/07/30 02:41:12;;;;;;;7.63;6.28;;;14.70;99.90;;;;;;4947968;28;20105;-84
2022/07/30 02:44:01;;;;;;;8.13;6.05;;;14.80;99.90;;;;;;4939849;28;20043;-85
2022/07/30 02:46:51;;;;;;;9.75;5.90;;;14.90;99.90;;;;;;4946093;29;20118;-84
2022/07/30 02:49:39;;;;;;;9.23;6.57;;;15.00;99.90;;;;;;4957553;28;20054;-84
2022/07/30 02:52:28;;;;;;;14.32;7.88;;;15.00;99.90;;;;;;4948445;29;20161;-83
2022/07/30 02:55:18;;;;;;;8.27;6.65;;;14.90;99.90;;;;;;4942187;28;20039;-84
2022/07/30 02:58:10;;;;;;;9.00;6.18;;;14.90;99.90;;;;;;4945292;28;20058;-84
2022/07/30 03:00:58;;;;;;;11.05;7.53;;;14.90;99.90;;;;;;4944901;28;20110;-83
2022/07/30 03:03:50;;;;;;;7.87;7.17;;;14.90;99.90;;;;;;4942377;28;20388;-83
2022/07/30 03:06:39;;;;;;;9.80;7.03;;;14.80;99.90;;;;;;4938410;29;20129;-85
2022/07/30 03:09:29;;;;;;;14.68;8.07;;;14.80;99.90;;;;;;4952209;28;20504;-84
2022/07/30 03:12:42;;;;;;;9.70;7.20;;;14.70;99.90;;;;;;4942314;29;20067;-84
2022/07/30 03:15:32;;;;;;;8.63;7.63;;;14.70;99.90;;;;;;4937430;28;20054;-85
2022/07/30 03:18:33;;;;;;;13.82;8.13;;;14.70;99.90;;;;;;4946438;28;20433;-85
2022/07/30 03:21:25;;;;;;;9.32;8.00;;;14.70;99.90;;;;;;4943874;29;20345;-86
2022/07/30 03:24:16;;;;;;;;;;;14.80;99.90;;;;;;4949586;29;20438;-85
2022/07/30 03:27:05;;;;;;;10.13;8.43;;;14.70;99.90;;;;;;4951781;28;19933;-84
2022/07/30 03:29:54;;;;;;;11.27;7.68;;;14.70;99.90;;;;;;4943052;28;20548;-85
2022/07/30 03:32:42;;;;;;;11.68;8.15;;;14.70;99.90;;;;;;4942409;28;20051;-84
2022/07/30 03:35:30;;;;;;;10.63;8.10;;;14.70;99.90;;;;;;4931083;28;20150;-84
2022/07/30 03:38:18;;;;;;;10.32;8.43;;;14.60;99.90;;;;;;4955735;28;20453;-85
2022/07/30 03:41:10;;;;;;;11.88;8.23;;;14.60;99.90;;;;;;4953046;28;20054;-83
2022/07/30 03:44:00;;;;;;;13.93;8.52;;;14.60;99.90;;;;;;4951558;28;20047;-84
2022/07/30 03:46:51;;;;;;;12.73;8.57;;;14.50;99.90;;;;;;4927613;29;20058;-85
2022/07/30 03:49:39;;;;;;;17.00;8.38;;;14.40;1.00;;;;;;4945876;28;20364;-85
2022/07/30 03:52:34;;;;;;;11.02;8.75;;;14.40;1.00;;;;;;4954981;29;20066;-84
2022/07/30 03:55:22;;;;;;;14.10;9.40;;;14.30;1.00;;;;;;4924916;29;20126;-85
2022/07/30 03:58:12;;;;;;;10.82;8.30;;;14.20;4.50;;;;;;4945778;28;20097;-84
2022/07/30 04:01:27;;;;;;;12.80;8.80;;;14.20;99.90;;;;;;4936978;29;20370;-85
2022/07/30 04:04:14;;;;;;;11.63;8.75;;;14.20;99.90;;;;;;4940253;28;20066;-84
2022/07/30 04:07:01;;;;;;;15.07;8.60;;;14.20;99.90;;;;;;4941851;28;20145;-85
2022/07/30 04:09:49;;;;;;;11.50;8.57;;;14.20;41.10;;;;;;4959802;28;20043;-85
2022/07/30 04:12:37;;;;;;;12.00;8.63;;;14.30;1.00;;;;;;4964869;28;20043;-86
2022/07/30 04:15:24;;;;;;;17.83;9.20;;;14.30;1.00;;;;;;4951182;28;20505;-84
2022/07/30 04:18:37;;;;;;;12.10;8.70;;;14.40;1.00;;;;;;4947545;29;20101;-84
2022/07/30 04:21:27;;;;;;;;;;;14.40;1.00;;;;;;4947735;29;20093;-84
2022/07/30 04:24:15;;;;;;;16.55;9.20;;;14.40;1.00;;;;;;4945846;28;20355;-84
2022/07/30 04:27:03;;;;;;;12.15;9.13;;;14.40;1.00;;;;;;4945956;28;20034;-84
2022/07/30 04:29:53;;;;;;;11.13;9.05;;;14.40;1.00;;;;;;4945424;29;20050;-84
2022/07/30 04:32:43;;;;;;;17.35;8.98;;;14.50;1.00;;;;;;4934732;29;20086;-84
2022/07/30 04:35:32;;;;;;;16.23;9.05;;;14.50;99.90;;;;;;4949774;28;20106;-84
2022/07/30 04:38:40;;;;;;;17.10;9.23;;;14.60;99.90;;;;;;4948254;28;20122;-84
2022/07/30 04:41:27;;;;;;;12.75;9.10;;;14.60;99.90;;;;;;4943755;29;20082;-84
2022/07/30 04:44:31;;;;;;;12.65;8.30;;;14.70;99.90;;;;;;4946143;29;20163;-84
2022/07/30 04:47:21;;;;;;;11.93;8.32;;;14.80;99.90;;;;;;4949584;29;20102;-84
2022/07/30 04:50:13;;;;;;;11.38;8.30;;;14.80;99.90;;;;;;4940208;28;20184;-84
2022/07/30 04:53:04;;;;;;;14.73;9.30;;;14.80;73.40;;;;;;4958595;28;20042;-85
2022/07/30 04:55:57;;;;;;;11.55;8.80;;;14.80;54.00;;;;;;4954707;28;20062;-85
2022/07/30 04:58:44;;;;;;;;;;;14.90;4.00;;;;;;4950834;28;20051;-82
2022/07/30 05:01:40;;;;;;;9.13;8.13;;;15.00;1.00;;;;;;4951419;28;19977;-85
2022/07/30 05:04:30;;;;;;;14.85;8.07;;;15.10;1.00;;;;;;4938724;28;20134;-84
2022/07/30 05:07:18;;;;;;;10.88;7.82;;;15.30;1.00;;;;;;4949745;28;20106;-84
2022/07/30 05:10:10;;;;;;;12.80;7.97;;;15.30;1.00;;;;;;4952772;28;20428;-85
2022/07/30 05:13:00;;;;;;;10.20;7.18;;;15.40;1.00;;;;;;4937440;29;20360;-85
2022/07/30 05:15:48;;;;;;;14.05;7.97;;;15.40;1.00;;;;;;4953206;28;20658;-84
2022/07/30 05:18:37;;;;;;;14.93;8.00;;;15.50;1.00;;;;;;4943697;29;20055;-85
2022/07/30 05:21:24;;;;;;;12.27;7.18;;;15.50;1.00;;;;;;4945503;29;20066;-83
2022/07/30 05:24:14;;;;;;;11.13;7.63;;;15.70;1.00;;;;;;4955794;28;20050;-83
2022/07/30 05:27:01;;;;;;;9.27;7.15;;;15.70;99.90;;;;;;4942660;29;20039;-85
2022/07/30 05:29:50;;;;;;;11.77;7.68;;;15.90;99.90;;;;;;4946197;29;20388;-86
2022/07/30 05:32:42;;;;;;;10.77;7.15;;;16.00;99.90;;;;;;4936455;29;20208;-86
2022/07/30 05:35:32;;;;;;;11.55;7.28;;;16.10;99.90;;;;;;4950837;28;20070;-86
2022/07/30 05:38:20;;;;;;;12.63;7.28;;;16.20;99.90;;;;;;4944380;28;20051;-85
2022/07/30 05:41:12;;;;;;;12.18;7.53;;;16.20;99.90;;;;;;4951549;28;20047;-85
2022/07/30 05:44:18;;;;;;;9.50;6.88;;;16.30;99.90;;;;;;4953045;28;20384;-87
2022/07/30 05:47:12;;;;;;;11.45;6.72;;;16.50;99.90;;;;;;4941146;29;20039;-84
2022/07/30 05:49:59;;;;;;;11.63;7.50;;;16.60;99.90;;;;;;4945195;28;20058;-83
2022/07/30 05:52:51;;;;;;;9.02;7.10;;;16.70;99.90;;;;;;4947985;29;20047;-84
2022/07/30 05:55:38;;;;;;;10.45;7.43;;;16.80;99.90;;;;;;4943900;29;20481;-83
2022/07/30 05:58:25;;;;;;;13.20;8.07;;;17.00;99.90;;;;;;4944564;28;20047;-85
2022/07/30 06:01:13;;;;;;;15.68;8.00;;;17.10;99.90;;;;;;4950768;28;20150;-84
2022/07/30 06:04:01;;;;;;;11.55;7.50;;;17.20;99.90;;;;;;4943990;29;20469;-86
2022/07/30 06:06:53;;;;;;;11.48;7.63;;;17.30;99.90;;;;;;4944461;29;20421;-85
2022/07/30 06:09:41;;;;;;;15.68;7.57;;;17.40;99.90;;;;;;4943656;28;20094;-85
2022/07/30 06:12:29;;;;;;;10.65;7.75;;;17.50;99.90;;;;;;4937761;29;20573;-86
2022/07/30 06:15:17;;;;;;;17.45;7.75;;;17.60;99.90;;;;;;4948686;28;20110;-87
2022/07/30 06:18:16;;;;;;;14.23;7.47;;;17.60;99.90;;;;;;4959658;28;20054;-85
2022/07/30 06:21:08;;;;;;;16.05;7.05;;;17.70;99.90;;;;;;4942679;28;20035;-82
2022/07/30 06:23:56;;;;;;;11.80;7.43;;;17.70;99.90;;;;;;4946611;28;20499;-84
2022/07/30 06:26:43;;;;;;;14.65;7.00;;;17.80;99.90;;;;;;4942706;28;20155;-84
2022/07/30 06:29:32;;;;;;;14.25;7.45;;;17.90;99.90;;;;;;4934944;28;20074;-87
2022/07/30 06:32:21;;;;;;;13.70;7.10;;;18.00;99.90;;;;;;4944448;28;20055;-86
2022/07/30 06:35:08;;;;;;;11.00;7.20;;;18.10;99.90;;;;;;4942474;28;20432;-87
2022/07/30 06:37:55;;;;;;;12.38;7.30;;;18.20;99.90;;;;;;4929675;29;20066;-85
2022/07/30 06:40:56;;;;;;;10.77;7.68;;;18.40;99.90;;;;;;4951217;28;20086;-85
2022/07/30 06:43:49;;;;;;;11.75;7.28;;;18.50;99.90;;;;;;4940046;29;20047;-86
2022/07/30 06:46:39;;;;;;;13.07;7.03;;;18.70;99.90;;;;;;4951857;28;20039;-89
2022/07/30 06:49:28;;;;;;;25.70;9.27;;;18.90;99.90;;;;;;4944279;29;20194;-89
2022/07/30 06:52:16;;;;;;;14.32;7.72;;;19.10;99.90;;;;;;4939057;29;20462;-88
2022/07/30 06:55:08;;;;;;;13.55;7.68;;;19.30;99.90;;;;;;4944301;29;20107;-90
2022/07/30 06:57:56;;;;;;;14.23;8.63;;;19.70;99.90;;;;;;4940637;29;20491;-86
2022/07/30 07:00:43;;;;;;;15.73;7.97;;;19.90;99.90;;;;;;4941103;29;20043;-86
2022/07/30 07:03:33;;;;;;;10.30;7.68;;;20.10;99.90;;;;;;4943996;29;20043;-85
2022/07/30 07:06:26;;;;;;;14.45;7.50;;;20.50;99.90;;;;;;4955470;28;20062;-87
2022/07/30 07:09:13;;;;;;;14.10;8.40;;;20.90;99.90;;;;;;4942096;28;20051;-85
2022/07/30 07:12:02;;;;;;;13.15;8.75;;;21.00;79.20;;;;;;4948715;29;20335;-87
2022/07/30 07:14:49;;;;;;;10.40;7.88;;;21.20;57.00;;;;;;4939672;28;20130;-85
2022/07/30 07:17:37;;;;;;;11.00;6.82;;;21.40;38.40;;;;;;4943677;29;20047;-84
2022/07/30 07:20:24;;;;;;;11.38;6.85;;;21.80;39.90;;;;;;4964734;28;20150;-85
2022/07/30 07:23:14;;;;;;;13.18;7.10;;;22.20;10.70;;;;;;4958190;28;20051;-83
2022/07/30 07:26:05;;;;;;;7.93;5.75;;;22.30;1.00;;;;;;4960092;28;20067;-83
2022/07/30 07:28:53;;;;;;;12.25;5.82;;;22.70;1.00;;;;;;4956656;28;20492;-87
2022/07/30 07:31:40;;;;;;;12.80;5.80;;;23.10;1.00;;;;;;4952887;28;20740;-85
2022/07/30 07:34:47;;;;;;;8.40;4.53;;;23.30;1.00;;;;;;4949194;29;20055;-85
2022/07/30 07:37:34;;;;;;;7.50;4.75;;;23.70;1.00;;;;;;4939143;29;20059;-87
2022/07/30 07:40:22;;;;;;;8.27;5.10;;;24.10;1.00;;;;;;4939394;29;20058;-85
2022/07/30 07:43:13;;;;;;;7.80;4.82;;;24.20;1.00;;;;;;4932525;28;20047;-84
2022/07/30 07:46:01;;;;;;;7.20;3.95;;;23.90;1.00;;;;;;4940593;28;20126;-86
2022/07/30 07:48:48;;;;;;;7.18;3.72;;;23.90;1.00;;;;;;4945195;28;20069;-87
2022/07/30 07:51:36;;;;;;;8.75;3.60;;;24.30;1.00;;;;;;4928292;29;20102;-87
2022/07/30 07:54:34;;;;;;;6.20;3.25;;;25.10;1.00;;;;;;4942166;29;20454;-87
2022/07/30 07:57:21;;;;;;;9.15;3.30;;;25.40;1.00;;;;;;4940777;28;20429;-87
2022/07/30 08:00:11;;;;;;;6.75;2.95;;;25.90;1.00;;;;;;4957981;28;20035;-86
2022/07/30 08:03:00;;;;;;;5.35;3.08;;;26.50;1.00;;;;;;4941400;28;20043;-85
2022/07/30 08:05:47;;;;;;;6.38;3.05;;;26.90;1.00;;;;;;4950005;29;20044;-88
2022/07/30 08:08:53;;;;;;;5.70;2.95;;;26.80;1.00;;;;;;4936576;29;20047;-87
2022/07/30 08:11:40;;;;;;;7.55;2.72;;;27.20;1.00;;;;;;4938115;28;20050;-87
2022/07/30 08:14:30;;;;;;;10.35;3.08;;;27.10;1.00;;;;;;4937431;29;20059;-88
2022/07/30 08:17:18;;;;;;;5.90;3.17;;;27.50;1.00;;;;;;4945337;29;20151;-85
2022/07/30 08:20:11;;;;;;;5.18;2.40;;;27.50;1.00;;;;;;4933189;29;20114;-88
2022/07/30 08:23:01;;;;;;;3.90;2.30;;;28.20;1.00;;;;;;4940368;28;20136;-86
2022/07/30 08:25:49;;;;;;;6.90;2.15;;;28.20;1.00;;;;;;4942035;28;20066;-84
2022/07/30 08:28:36;;;;;;;4.88;2.22;;;28.00;1.00;;;;;;4939266;28;20178;-86
2022/07/30 08:31:23;;;;;;;3.45;1.73;;;28.00;1.00;;;;;;4939326;29;20062;-86
2022/07/30 08:34:12;;;;;;;4.00;2.10;;;28.60;1.00;;;;;;4947563;28;20043;-87
2022/07/30 08:36:59;;;;;;;3.50;1.98;;;28.30;1.00;;;;;;4937109;28;20052;-88
2022/07/30 08:39:46;;;;;;;5.68;2.10;;;27.60;1.00;;;;;;4954277;29;20126;-86
2022/07/30 08:42:36;;;;;;;4.47;2.22;;;27.20;1.00;;;;;;4941428;28;20058;-85
2022/07/30 08:45:26;;;;;;;5.20;2.15;;;27.10;1.00;;;;;;4940007;29;20133;-85
2022/07/30 08:48:22;;;;;;;6.20;1.67;;;27.50;1.00;;;;;;4939848;28;20043;-84
2022/07/30 08:51:09;;;;;;;5.32;1.65;;;28.20;1.00;;;;;;4942132;28;20043;-85
2022/07/30 08:53:57;;;;;;;5.20;1.50;;;28.70;1.00;;;;;;4952298;28;20507;-85
2022/07/30 08:56:48;;;;;;;3.63;2.00;;;29.90;1.00;;;;;;4944090;29;20425;-86
2022/07/30 08:59:37;;;;;;;3.55;2.00;;;29.50;1.00;;;;;;4944372;28;20063;-88
2022/07/30 09:02:45;;;;;;;2.63;1.50;;;29.80;1.00;;;;;;4934586;29;20130;-87
2022/07/30 09:05:33;;;;;;;4.82;1.70;;;30.00;1.00;;;;;;4946091;29;20047;-85
2022/07/30 09:08:21;;;;;;;6.38;1.98;;;29.20;1.00;;;;;;4954195;28;20078;-84
2022/07/30 09:11:09;;;;;;;7.45;2.10;;;28.50;1.00;;;;;;4942371;29;20472;-86
2022/07/30 09:14:10;;;;;;;3.60;1.80;;;27.40;1.00;;;;;;4943237;28;20058;-86
2022/07/30 09:17:00;;;;;;;6.65;1.70;;;26.80;1.00;;;;;;4944944;29;20052;-86
2022/07/30 09:20:02;;;;;;;3.35;1.70;;;27.20;1.00;;;;;;4944062;29;20043;-86
2022/07/30 09:22:52;;;;;;;9.50;1.77;;;28.60;1.00;;;;;;4959118;28;20062;-85
2022/07/30 09:25:41;;;;;;;5.85;1.98;;;28.70;1.00;;;;;;4951241;28;20062;-85
2022/07/30 09:28:33;;;;;;;5.82;2.00;;;28.50;1.00;;;;;;4941696;29;20047;-86
2022/07/30 09:31:22;;;;;;;3.53;1.70;;;27.60;1.00;;;;;;4943875;28;20190;-88
2022/07/30 09:34:29;;;;;;;4.88;1.63;;;27.90;1.00;;;;;;4951468;29;20054;-88
2022/07/30 09:37:19;;;;;;;8.13;1.63;;;29.10;1.00;;;;;;4952432;29;20047;-86
2022/07/30 09:40:17;;;;;;;8.00;2.15;;;28.70;1.00;;;;;;4944776;29;20138;-85
2022/07/30 09:43:10;;;;;;;5.90;1.77;;;29.10;1.00;;;;;;4944493;29;20528;-86
2022/07/30 09:46:00;;;;;;;9.57;1.60;;;30.20;1.00;;;;;;4957065;28;20114;-88
2022/07/30 09:48:48;;;;;;;2.90;1.40;;;30.50;1.00;;;;;;4950867;29;20047;-89
2022/07/30 09:51:38;;;;;;;3.83;1.23;;;31.10;1.00;;;;;;4944480;29;20043;-89
2022/07/30 09:54:48;;;;;;;3.55;1.40;;;32.30;1.00;;;;;;4936411;29;20051;-88
2022/07/30 09:57:57;;;;;;;7.15;1.70;;;33.00;1.00;;;;;;4956472;28;20043;-89
2022/07/30 10:00:45;;;;;;;7.75;1.42;;;32.90;99.90;;;;;;4938830;29;20047;-86
2022/07/30 10:03:32;;;;;;;4.25;1.30;;;33.20;99.90;;;;;;4945666;29;20043;-87
2022/07/30 10:06:35;;;;;;;4.38;1.33;;;33.50;99.90;;;;;;4952075;28;20346;-88
2022/07/30 10:09:30;;;;;;;3.03;1.45;;;33.40;99.90;;;;;;4950110;28;20126;-88
2022/07/30 10:12:20;;;;;;;3.88;1.10;;;33.80;99.90;;;;;;4944112;28;20043;-88
2022/07/30 10:15:18;;;;;;;2.33;1.00;;;32.80;99.90;;;;;;4944533;28;20063;-85
2022/07/30 10:18:06;;;;;;;7.25;1.52;;;32.80;99.90;;;;;;4957057;28;20039;-88
2022/07/30 10:20:54;;;;;;;5.55;1.30;;;32.40;99.90;;;;;;4943211;29;20047;-86
2022/07/30 10:23:45;;;;;;;3.70;1.48;;;31.40;99.90;;;;;;4943834;28;20657;-84
2022/07/30 10:26:37;;;;;;;4.93;1.38;;;31.10;99.90;;;;;;4956557;28;20290;-85
2022/07/30 10:29:27;;;;;;;2.70;1.30;;;31.20;99.90;;;;;;4953763;28;20472;-85
2022/07/30 10:38:15;;;;;;;4.07;1.63;;;32.20;99.90;;;;;;4868442;29;20044;-80
2022/07/30 10:41:23;;;;;;;3.88;1.67;;;31.40;99.90;;;;;;4856538;29;20053;-82
2022/07/30 10:44:49;;;;;;;3.42;1.30;;;30.80;99.90;;;;;;4874401;29;20048;-84
2022/07/30 10:47:38;;;;;;;4.60;1.50;;;31.80;99.90;;;;;;4897746;29;20483;-87
2022/07/30 10:50:54;;;;;;;5.78;1.38;;;32.80;99.90;;;;;;4896894;29;20378;-85
2022/07/30 10:53:45;;;;;;;3.05;1.35;;;33.40;99.90;;;;;;4895846;29;20036;-81
2022/07/30 10:56:35;;;;;;;4.13;1.50;;;32.90;99.90;;;;;;4896489;29;20470;-84
2022/07/30 10:59:22;;;;;;;4.43;1.30;;;32.10;99.90;;;;;;4897437;29;20101;-83
2022/07/30 11:02:16;;;;;;;6.22;1.30;;;31.90;99.90;;;;;;4897847;29;20128;-84
2022/07/30 11:05:19;;;;;;;3.45;1.65;;;32.40;99.90;;;;;;4894049;29;20143;-84
2022/07/30 11:08:44;;;;;;;4.32;1.48;;;31.90;99.90;;;;;;4896339;29;20128;-85
2022/07/30 11:11:37;;;;;;;4.15;1.33;;;29.80;99.90;;;;;;4894761;29;20048;-85
2022/07/30 11:14:47;;;;;;;2.97;1.25;;;29.70;99.90;;;;;;4892045;29;20195;-84
2022/07/30 11:17:58;;;;;;;6.03;1.40;;;30.90;99.90;;;;;;4903587;29;20056;-84
2022/07/30 11:21:22;;;;;;;3.22;1.00;;;32.40;99.90;;;;;;4891663;29;20049;-84
2022/07/30 11:24:45;;;;;;;2.30;1.15;;;33.80;99.90;;;;;;4907447;29;20203;-84
2022/07/30 11:27:38;;;;;;;6.68;1.38;;;34.60;99.90;;;;;;4894003;29;20052;-83
2022/07/30 11:30:27;;;;;;;2.20;1.10;;;33.80;99.90;;;;;;4892444;29;20080;-84
2022/07/30 11:33:16;;;;;;;4.60;1.13;;;33.10;99.90;;;;;;4898086;29;20053;-83
2022/07/30 11:36:11;;;;;;;2.63;0.95;;;33.20;99.90;;;;;;4902901;29;20052;-85
2022/07/30 11:38:59;;;;;;;3.55;1.10;;;33.50;99.90;;;;;;4910440;29;20063;-84
2022/07/30 11:42:22;;;;;;;4.63;1.45;;;33.90;99.90;;;;;;4910830;29;20076;-83
2022/07/30 11:45:18;;;;;;;3.03;0.98;;;33.10;99.90;;;;;;4917953;29;20052;-80
2022/07/30 11:48:10;;;;;;;4.80;1.00;;;33.40;99.90;;;;;;4896457;29;20116;-83
2022/07/30 11:50:57;;;;;;;4.95;1.23;;;33.80;99.90;;;;;;4894218;29;20076;-83
2022/07/30 11:54:02;;;;;;;1.83;0.85;;;33.80;99.90;;;;;;4892501;29;20402;-84
2022/07/30 11:56:56;;;;;;;7.75;1.35;;;34.50;99.90;;;;;;4893939;29;20120;-82
2022/07/30 11:59:56;;;;;;;1.75;0.93;;;33.70;99.90;;;;;;4880150;29;20181;-83
2022/07/30 12:02:48;;;;;;;3.38;1.20;;;32.90;99.90;;;;;;4899494;29;20060;-83
2022/07/30 12:05:36;;;;;;;;;;;31.90;99.90;;;;;;4891855;29;20052;-85
2022/07/30 12:08:26;;;;;;;7.80;1.42;;;33.00;99.90;;;;;;4901014;29;19932;-85
2022/07/30 12:11:22;;;;;;;3.30;1.20;;;33.50;99.90;;;;;;4900042;29;20051;-85
2022/07/30 12:14:09;;;;;;;2.00;0.88;;;31.80;99.90;;;;;;4889224;29;20037;-86
2022/07/30 12:16:58;;;;;;;3.13;1.00;;;31.90;99.90;;;;;;4895884;29;20056;-85
2022/07/30 12:19:48;;;;;;;4.25;0.90;;;32.70;99.90;;;;;;4896244;29;20466;-83
2022/07/30 12:22:38;;;;;;;1.73;1.05;;;33.90;99.90;;;;;;4895469;29;20079;-90
2022/07/30 12:25:28;;;;;;;2.53;0.90;;;33.40;99.90;;;;;;4898863;29;20059;-89
2022/07/30 12:28:43;;;;;;;2.33;1.15;;;31.80;99.90;;;;;;4898361;29;20115;-90
2022/07/30 12:31:35;;;;;;;2.05;1.00;;;30.90;99.90;;;;;;4905656;29;20085;-91
2022/07/30 12:34:28;;;;;;;2.08;1.10;;;30.40;99.90;;;;;;4903825;29;20048;-88
2022/07/30 12:37:15;;;;;;;1.73;1.00;;;31.00;99.90;;;;;;4907137;29;20061;-90
2022/07/30 12:40:08;;;;;;;1.52;0.90;;;31.00;99.90;;;;;;4900685;29;20474;-82
2022/07/30 12:43:00;;;;;;;5.20;1.13;;;31.20;99.90;;;;;;4901418;29;20044;-87
2022/07/30 12:45:50;;;;;;;3.35;1.10;;;31.30;99.90;;;;;;4900945;29;20045;-84
2022/07/30 12:48:52;;;;;;;5.18;1.30;;;31.40;99.90;;;;;;4900342;29;20064;-86
2022/07/30 12:51:52;;;;;;;4.07;1.20;;;30.60;99.90;;;;;;4899444;29;20052;-86
2022/07/30 12:54:58;;;;;;;3.78;1.10;;;30.70;99.90;;;;;;4898720;29;20502;-86
2022/07/30 12:57:58;;;;;;;1.98;1.10;;;31.90;99.90;;;;;;4901008;29;20040;-88
2022/07/30 13:00:52;;;;;;;1.83;0.98;;;31.50;99.90;;;;;;4900970;29;20059;-83
2022/07/30 13:03:40;;;;;;;1.60;1.05;;;32.50;99.90;;;;;;4894160;29;20131;-85
2022/07/30 13:06:27;;;;;;;1.80;1.00;;;33.90;99.90;;;;;;4897239;29;20052;-83
2022/07/30 13:09:19;;;;;;;2.28;0.82;;;34.70;99.90;;;;;;4897133;29;20091;-85
2022/07/30 13:12:10;;;;;;;2.00;0.77;;;36.00;99.90;;;;;;4901573;29;20048;-87
2022/07/30 13:14:57;;;;;;;7.18;0.82;;;36.50;99.90;;;;;;4900950;29;20059;-87
2022/07/30 13:17:44;;;;;;;2.83;0.60;;;37.30;99.90;;;;;;4900964;29;20071;-87
2022/07/30 13:20:34;;;;;;;3.80;1.25;;;37.10;99.90;;;;;;4899876;29;20056;-83
2022/07/30 13:23:27;;;;;;;4.07;1.20;;;36.70;99.90;;;;;;4891779;29;20056;-84
2022/07/30 13:26:14;;;;;;;2.15;1.00;;;35.50;99.90;;;;;;4898789;29;20052;-85
2022/07/30 13:29:02;;;;;;;1.95;0.98;;;35.20;99.90;;;;;;4894779;29;20083;-83
2022/07/30 13:31:52;;;;;;;3.20;1.20;;;34.80;99.90;;;;;;4900290;29;20053;-86
2022/07/30 13:34:40;;;;;;;2.67;1.00;;;32.10;99.90;;;;;;4897421;29;20057;-85
2022/07/30 13:37:28;;;;;;;3.72;0.95;;;30.30;99.90;;;;;;4887523;29;20064;-87
2022/07/30 13:40:24;;;;;;;3.05;1.20;;;28.80;99.90;;;;;;4901473;29;20495;-82
2022/07/30 13:43:11;;;;;;;2.88;1.40;;;27.70;99.90;;;;;;4890602;29;20116;-87
2022/07/30 13:46:02;;;;;;;4.60;1.15;;;28.20;99.90;;;;;;4897805;29;20055;-86
2022/07/30 13:48:51;;;;;;;2.60;1.58;;;30.50;99.90;;;;;;4908057;29;20099;-86
2022/07/30 13:51:40;;;;;;;2.58;1.05;;;32.90;99.90;;;;;;4902260;29;20092;-88
2022/07/30 13:54:29;;;;;;;5.13;1.13;;;34.40;99.90;;;;;;4901791;29;20374;-88
2022/07/30 13:57:16;;;;;;;2.58;1.17;;;35.50;99.90;;;;;;4910254;29;20052;-83
2022/07/30 14:00:05;;;;;;;1.83;1.10;;;35.90;99.90;;;;;;4907865;29;20051;-85
2022/07/30 14:02:53;;;;;;;2.13;1.10;;;34.60;99.90;;;;;;4897553;29;20060;-85
2022/07/30 14:05:41;;;;;;;2.13;0.98;;;33.50;99.90;;;;;;4901654;29;20065;-85
2022/07/30 14:08:30;;;;;;;3.40;1.00;;;32.20;99.90;;;;;;4903858;29;20127;-85
2022/07/30 14:11:17;;;;;;;4.32;1.27;;;31.20;99.90;;;;;;4902029;29;20382;-83
2022/07/30 14:14:07;;;;;;;4.55;1.40;;;31.80;99.90;;;;;;4887877;29;20132;-85
2022/07/30 14:16:54;;;;;;;2.03;0.88;;;33.50;99.90;;;;;;4890494;29;20056;-85
2022/07/30 14:19:43;;;;;;;5.13;1.08;;;35.00;99.90;;;;;;4916901;29;20048;-85
2022/07/30 14:22:31;;;;;;;1.70;1.15;;;34.80;99.90;;;;;;4910297;29;20056;-86
2022/07/30 14:25:21;;;;;;;2.20;0.95;;;33.60;99.90;;;;;;4899106;29;20048;-87
2022/07/30 14:28:11;;;;;;;1.98;1.30;;;31.40;99.90;;;;;;4907696;29;20130;-87
2022/07/30 14:31:02;;;;;;;1.73;1.17;;;29.20;99.90;;;;;;4896566;29;20111;-87
2022/07/30 14:33:49;;;;;;;4.10;1.10;;;28.40;99.90;;;;;;4897711;29;20497;-86
2022/07/30 14:36:36;;;;;;;2.58;1.05;;;29.10;99.90;;;;;;4903841;29;20064;-87
2022/07/30 14:39:25;;;;;;;4.82;1.50;;;30.30;99.90;;;;;;4892337;29;20192;-86
2022/07/30 14:42:13;;;;;;;4.95;1.27;;;32.30;99.90;;;;;;4884310;29;20458;-85
2022/07/30 14:45:00;;;;;;;1.88;1.17;;;33.20;99.90;;;;;;4902263;29;20052;-84
2022/07/30 14:47:47;;;;;;;1.45;0.75;;;33.80;99.90;;;;;;4904252;29;20112;-86
2022/07/30 14:50:38;;;;;;;4.18;0.82;;;33.50;99.90;;;;;;4891782;29;20407;-88
2022/07/30 14:53:49;;;;;;;1.17;0.90;;;32.80;99.90;;;;;;4894675;29;20045;-85
2022/07/30 14:56:36;;;;;;;1.48;0.80;;;31.70;99.90;;;;;;4901668;29;20182;-85
2022/07/30 14:59:26;;;;;;;2.45;0.75;;;32.30;99.90;;;;;;4902891;29;20057;-86
2022/07/30 15:02:14;;;;;;;2.40;0.70;;;32.80;99.90;;;;;;4890188;29;20044;-87
2022/07/30 15:05:01;;;;;;;2.80;1.02;;;32.00;99.90;;;;;;4900367;29;20067;-85
2022/07/30 15:07:48;;;;;;;2.88;0.90;;;31.20;99.90;;;;;;4902887;29;20467;-84